Terminal Aerodrome Forecast
Issued by NWS

Home | Current Version | Previous Version | Text Only | Print | Product List | Glossary On
Versions: 1 2 3 4 5 6 7 8 9 10 11 12 13 14 15 16
564
FTUS46 KSEW 282320
TAFCLM
TAF
KCLM 282320Z 2900/2924 VRB04KT P6SM SCT200
     FM290200 29006KT P6SM SCT200
     FM291000 VRB04KT P6SM BKN200
     FM291800 03005KT P6SM SCT120 BKN200
     FM292100 34006KT P6SM SCT120 BKN200=

USA.gov is the U.S. government's official web portal to all federal, state and local government web resources and services.